Wakita, Oklahoma
Current Conditions -  °F | °C
As of 2:35 PM on Monday 22 Dec 2014 (Local Time) from KBKN Reporting Station
Overcast Overcast  
Wind Chill: 54°   Ceiling: 3400
Heat Index: 54°   Visibility: 10mi
Dew Point: 41°   Wind: 22mph
Humidity: 62%   Direction: 310°NW
Pressure: 29.54"   Gusts: 28mph
Location:  36.88°N, 97.92°W
Report Text: KBKN 222035Z AUTO 31019G24KT 10SM BKN034 OVC065 12/05 A2954 RMK AO2 LTG DSNT N
Loading
Personal Weather Stations






























Interactive Weather Map New forecast layout! Learn more

10-Day Weather Forecast

Advertisements
Track Severe Weather on mobile